createdAt,value
2019-06-26T00:00:00.045Z,59.90
2019-06-26T00:02:26.377Z,60.10
2019-06-26T00:04:52.993Z,60.80
2019-06-26T00:07:19.321Z,61.50
2019-06-26T00:09:45.792Z,62.90
2019-06-26T00:12:12.016Z,62.80
2019-06-26T00:14:39.054Z,64.90
2019-06-26T00:17:05.403Z,65.30
2019-06-26T00:19:31.661Z,66.60
2019-06-26T00:21:57.906Z,68.00
2019-06-26T00:24:24.153Z,68.60
2019-06-26T00:26:50.404Z,70.40
2019-06-26T00:29:16.640Z,71.10
2019-06-26T00:31:42.882Z,71.10
2019-06-26T00:34:09.113Z,71.70
2019-06-26T00:36:35.453Z,73.60
2019-06-26T00:39:02.715Z,74.10
2019-06-26T00:41:29.071Z,74.00
2019-06-26T00:43:55.322Z,75.20
2019-06-26T00:46:21.558Z,75.30
2019-06-26T00:48:47.805Z,75.70
2019-06-26T00:51:14.205Z,76.80
2019-06-26T00:53:40.562Z,77.00
2019-06-26T00:56:06.975Z,77.30
2019-06-26T00:58:33.705Z,77.20
2019-06-26T01:01:00.248Z,78.00
2019-06-26T01:03:26.498Z,80.80
2019-06-26T01:05:52.734Z,82.30
2019-06-26T01:08:19.037Z,83.20
2019-06-26T01:10:45.279Z,83.20
2019-06-26T01:13:11.783Z,83.40
2019-06-26T01:15:38.122Z,85.00
2019-06-26T01:18:04.369Z,85.70
2019-06-26T01:20:30.609Z,88.00
2019-06-26T01:22:56.853Z,87.90
2019-06-26T01:25:23.390Z,89.30
2019-06-26T01:27:49.798Z,90.20
2019-06-26T01:30:17.231Z,90.20
2019-06-26T01:32:43.565Z,90.80
2019-06-26T01:35:10.829Z,91.90
2019-06-26T01:37:37.355Z,92.30
2019-06-26T01:40:05.225Z,92.70
2019-06-26T01:42:31.554Z,94.00
2019-06-26T01:44:57.819Z,94.10
2019-06-26T01:47:24.038Z,94.90
2019-06-26T01:49:50.278Z,94.80
2019-06-26T01:52:16.531Z,95.20
2019-06-26T01:54:42.768Z,95.60
2019-06-26T01:57:09.021Z,95.80
2019-06-26T01:59:35.526Z,96.00
2019-06-26T02:02:01.771Z,96.00
2019-06-26T02:04:27.996Z,96.60
2019-06-26T02:06:54.361Z,97.10
2019-06-26T02:09:20.597Z,97.10
2019-06-26T02:11:47.113Z,97.80
2019-06-26T02:14:13.376Z,98.10
2019-06-26T02:16:39.605Z,98.10
2019-06-26T02:19:10.741Z,97.90
2019-06-26T02:21:36.993Z,98.30
2019-06-26T02:24:03.790Z,98.30
2019-06-26T02:26:30.040Z,98.40
2019-06-26T02:28:56.653Z,98.50
2019-06-26T02:31:23.191Z,99.60
2019-06-26T02:33:49.506Z,99.20
2019-06-26T02:36:17.866Z,99.30
2019-06-26T02:38:44.106Z,99.70
2019-06-26T02:41:10.453Z,99.90
2019-06-26T02:43:36.699Z,99.90
2019-06-26T02:46:03.133Z,99.90
2019-06-26T02:48:29.372Z,99.90
2019-06-26T02:50:55.613Z,99.90
2019-06-26T02:53:21.906Z,99.90
2019-06-26T02:55:48.150Z,99.90
2019-06-26T02:58:14.386Z,99.90
2019-06-26T03:00:40.734Z,99.90
2019-06-26T03:03:07.059Z,99.90
2019-06-26T03:05:33.545Z,99.90
2019-06-26T03:07:59.777Z,99.90
2019-06-26T03:10:26.017Z,99.90
2019-06-26T03:12:52.581Z,99.90
2019-06-26T03:15:18.816Z,99.90
2019-06-26T03:17:54.742Z,99.90
2019-06-26T03:20:15.305Z,99.90
2019-06-26T03:22:41.545Z,99.90
2019-06-26T03:25:07.985Z,99.90
2019-06-26T03:27:34.239Z,99.90
2019-06-26T03:30:00.578Z,99.90
2019-06-26T03:32:26.829Z,99.90
2019-06-26T03:34:53.061Z,99.90
2019-06-26T03:37:19.296Z,99.90
2019-06-26T03:39:45.549Z,99.90
2019-06-26T03:42:11.976Z,99.90
2019-06-26T03:44:38.224Z,99.90
2019-06-26T03:47:04.462Z,99.90
2019-06-26T03:49:31.011Z,99.90
2019-06-26T03:51:57.239Z,99.90
2019-06-26T03:54:23.494Z,99.90
2019-06-26T03:56:49.733Z,99.90
2019-06-26T03:59:15.960Z,99.90
2019-06-26T04:01:42.198Z,99.90
2019-06-26T04:04:08.445Z,99.90
2019-06-26T04:06:34.688Z,99.90
2019-06-26T04:09:00.917Z,99.90
2019-06-26T04:11:27.172Z,99.90
2019-06-26T04:13:53.407Z,99.90
2019-06-26T04:16:19.637Z,99.90
2019-06-26T04:18:45.865Z,99.90
2019-06-26T04:21:12.106Z,99.90
2019-06-26T04:23:38.342Z,99.90
2019-06-26T04:26:04.578Z,99.90
2019-06-26T04:28:31.020Z,99.90
2019-06-26T04:30:57.241Z,99.90
2019-06-26T04:33:23.475Z,99.90
2019-06-26T04:35:49.799Z,99.90
2019-06-26T04:38:16.034Z,99.50
2019-06-26T04:40:42.284Z,99.10
2019-06-26T04:43:08.511Z,99.10
2019-06-26T04:45:34.746Z,98.30
2019-06-26T04:48:00.984Z,97.00
2019-06-26T04:50:27.321Z,96.50
2019-06-26T04:52:53.664Z,95.70
2019-06-26T04:55:19.893Z,94.10
2019-06-26T04:57:46.140Z,94.20
2019-06-26T05:00:12.978Z,94.20
2019-06-26T05:02:39.501Z,94.20
2019-06-26T05:05:06.434Z,93.70
2019-06-26T05:07:32.687Z,93.30
2019-06-26T05:09:59.036Z,93.70
2019-06-26T05:12:25.328Z,94.00
2019-06-26T05:14:51.802Z,94.00
2019-06-26T05:17:18.033Z,94.00
2019-06-26T05:19:44.268Z,94.00
2019-06-26T05:22:10.608Z,94.10
2019-06-26T05:24:36.852Z,94.20
2019-06-26T05:27:03.089Z,94.60
2019-06-26T05:29:29.450Z,94.90
2019-06-26T05:31:55.680Z,95.30
2019-06-26T05:34:22.025Z,94.30
2019-06-26T05:36:48.265Z,94.40
2019-06-26T05:39:14.496Z,93.20
2019-06-26T05:41:40.737Z,92.30
2019-06-26T05:44:06.972Z,92.10
2019-06-26T05:46:33.209Z,92.60
2019-06-26T05:48:59.435Z,92.30
2019-06-26T05:51:25.674Z,92.10
2019-06-26T05:53:52.008Z,91.00
2019-06-26T05:56:18.234Z,91.00
2019-06-26T05:58:44.463Z,90.60
2019-06-26T06:01:10.705Z,90.80
2019-06-26T06:03:36.929Z,90.30
2019-06-26T06:06:03.493Z,89.00
2019-06-26T06:08:29.737Z,87.60
2019-06-26T06:10:58.214Z,87.60
2019-06-26T06:13:24.345Z,86.40
2019-06-26T06:15:50.585Z,86.30
2019-06-26T06:18:16.932Z,85.90
2019-06-26T06:20:43.261Z,84.50
2019-06-26T06:23:09.515Z,81.70
2019-06-26T06:25:35.887Z,81.30
2019-06-26T06:28:02.157Z,78.70
2019-06-26T06:30:28.849Z,78.10
2019-06-26T06:32:55.320Z,79.80
2019-06-26T06:35:21.753Z,76.00
2019-06-26T06:37:48.001Z,76.30
2019-06-26T06:40:17.225Z,75.30
2019-06-26T06:42:43.468Z,73.80
2019-06-26T06:45:10.093Z,75.00
2019-06-26T06:47:36.335Z,72.80
2019-06-26T06:50:04.388Z,71.10
2019-06-26T06:52:30.682Z,70.00
2019-06-26T06:54:56.989Z,69.80
2019-06-26T06:57:23.407Z,69.20
2019-06-26T06:59:49.741Z,69.80
2019-06-26T07:02:16.375Z,69.60
2019-06-26T07:04:42.637Z,68.20
2019-06-26T07:07:08.865Z,66.50
2019-06-26T07:09:35.229Z,67.80
2019-06-26T07:12:01.464Z,68.20
2019-06-26T07:14:27.692Z,63.80
2019-06-26T07:16:54.022Z,63.60
2019-06-26T07:19:20.274Z,63.00
2019-06-26T07:21:46.509Z,60.00
2019-06-26T07:24:12.765Z,59.70
2019-06-26T07:26:38.997Z,59.00
2019-06-26T07:29:05.363Z,57.40
2019-06-26T07:31:31.588Z,57.70
2019-06-26T07:33:57.842Z,56.40
2019-06-26T07:36:24.155Z,55.40
2019-06-26T07:38:50.388Z,56.20
2019-06-26T07:41:16.612Z,56.20
2019-06-26T07:43:42.839Z,57.20
2019-06-26T07:46:09.218Z,56.90
2019-06-26T07:48:35.507Z,56.00
2019-06-26T07:51:01.906Z,57.00
2019-06-26T07:53:28.187Z,56.50
2019-06-26T07:55:54.745Z,52.00
2019-06-26T07:58:26.945Z,52.20
2019-06-26T08:00:53.400Z,52.10
2019-06-26T08:03:19.709Z,52.40
2019-06-26T08:05:46.036Z,52.40
2019-06-26T08:08:14.686Z,50.80
2019-06-26T08:10:40.827Z,46.70
2019-06-26T08:13:07.352Z,47.20
2019-06-26T08:15:33.617Z,46.00
2019-06-26T08:18:01.517Z,45.90
2019-06-26T08:20:28.056Z,44.10
2019-06-26T08:22:54.295Z,41.10
2019-06-26T08:25:20.705Z,40.40
2019-06-26T08:27:47.882Z,40.30
2019-06-26T08:30:14.926Z,41.30
2019-06-26T08:32:41.197Z,39.20
2019-06-26T08:35:08.058Z,35.70
2019-06-26T08:37:34.407Z,35.60
2019-06-26T08:40:00.890Z,34.40
2019-06-26T08:42:27.248Z,31.80
2019-06-26T08:44:53.593Z,33.90
2019-06-26T08:47:19.933Z,32.10
2019-06-26T08:49:46.287Z,29.80
2019-06-26T08:52:12.620Z,28.50
2019-06-26T08:54:38.873Z,27.50
2019-06-26T08:57:07.187Z,24.50
2019-06-26T08:59:33.653Z,22.30
2019-06-26T09:02:00.676Z,24.30
2019-06-26T09:04:26.983Z,24.00
2019-06-26T09:06:53.233Z,21.30
2019-06-26T09:09:19.556Z,21.30
2019-06-26T09:11:45.821Z,21.30
2019-06-26T09:14:12.096Z,19.40
2019-06-26T09:16:38.328Z,17.60
2019-06-26T09:19:04.687Z,17.50
2019-06-26T09:21:31.524Z,18.00
2019-06-26T09:23:58.143Z,18.30
2019-06-26T09:26:24.573Z,17.20
2019-06-26T09:28:51.078Z,18.00
2019-06-26T09:31:18.048Z,19.70
2019-06-26T09:33:44.694Z,20.00
2019-06-26T09:36:10.940Z,21.00
2019-06-26T09:38:37.189Z,18.90
2019-06-26T09:41:03.524Z,17.70
2019-06-26T09:43:29.767Z,17.00
2019-06-26T09:45:56.123Z,15.50
2019-06-26T09:48:22.604Z,15.30
2019-06-26T09:50:49.083Z,14.10
2019-06-26T09:53:15.328Z,14.50
2019-06-26T09:55:41.941Z,15.10
2019-06-26T09:58:08.261Z,14.80
2019-06-26T10:00:34.714Z,15.20
2019-06-26T10:03:01.051Z,14.30
2019-06-26T10:05:27.310Z,13.20
2019-06-26T10:07:53.545Z,13.90
2019-06-26T10:10:19.807Z,13.40
2019-06-26T10:12:46.480Z,12.80
2019-06-26T10:15:13.829Z,12.60
2019-06-26T10:17:40.173Z,12.40
2019-06-26T10:20:08.128Z,12.00
2019-06-26T10:22:34.558Z,13.90
2019-06-26T10:25:00.871Z,12.30
2019-06-26T10:27:27.337Z,12.80
2019-06-26T10:29:53.609Z,12.90
2019-06-26T10:32:19.920Z,13.70
2019-06-26T10:34:46.172Z,12.20
2019-06-26T10:37:12.514Z,12.20
2019-06-26T10:39:38.758Z,12.80
2019-06-26T10:42:05.018Z,12.30
2019-06-26T10:44:31.380Z,12.30
2019-06-26T10:46:57.637Z,12.90
2019-06-26T10:49:27.551Z,12.20
2019-06-26T10:51:52.058Z,12.90
2019-06-26T10:54:18.362Z,14.40
2019-06-26T10:56:44.844Z,13.40
2019-06-26T10:59:11.201Z,14.00
2019-06-26T11:01:37.441Z,14.50
2019-06-26T11:04:03.781Z,14.40
2019-06-26T11:06:30.269Z,13.80
2019-06-26T11:08:56.522Z,13.40
2019-06-26T11:11:22.877Z,12.60
2019-06-26T11:13:49.125Z,12.70
2019-06-26T11:16:15.365Z,11.80
2019-06-26T11:18:41.972Z,12.50
2019-06-26T11:21:08.475Z,12.50
2019-06-26T11:23:34.801Z,11.60
2019-06-26T11:26:01.041Z,10.60
2019-06-26T11:28:27.273Z,10.40
2019-06-26T11:30:53.535Z,10.00
2019-06-26T11:33:19.771Z,10.20
2019-06-26T11:35:46.040Z,10.00
2019-06-26T11:38:12.291Z,9.70
2019-06-26T11:40:38.525Z,12.40
2019-06-26T11:43:04.769Z,12.10
2019-06-26T11:45:31.046Z,12.90
2019-06-26T11:47:57.410Z,13.20
2019-06-26T11:50:23.733Z,12.30
2019-06-26T11:52:50.173Z,12.80
2019-06-26T11:55:17.308Z,12.70
2019-06-26T11:57:43.766Z,13.10
2019-06-26T12:00:12.296Z,13.40
2019-06-26T12:02:38.560Z,13.20
2019-06-26T12:05:07.100Z,14.50
2019-06-26T12:07:33.535Z,13.70
2019-06-26T12:09:59.854Z,12.40
2019-06-26T12:12:26.634Z,12.20
2019-06-26T12:14:53.170Z,12.40
2019-06-26T12:17:19.436Z,12.10
2019-06-26T12:19:46.042Z,12.30
2019-06-26T12:22:12.390Z,12.40
2019-06-26T12:24:38.735Z,12.30
2019-06-26T12:27:04.956Z,13.80
2019-06-26T12:29:33.005Z,15.00
2019-06-26T12:32:02.453Z,15.20
2019-06-26T12:34:28.764Z,15.60
2019-06-26T12:36:55.048Z,16.60
2019-06-26T12:39:21.446Z,16.70
2019-06-26T12:41:47.733Z,16.90
2019-06-26T12:44:14.509Z,16.80
2019-06-26T12:46:40.745Z,16.60
2019-06-26T12:49:06.975Z,16.30
2019-06-26T12:51:33.306Z,15.50
2019-06-26T12:53:59.552Z,15.20
2019-06-26T12:56:25.887Z,15.90
2019-06-26T12:58:52.228Z,15.10
2019-06-26T13:01:25.157Z,16.00
2019-06-26T13:03:51.882Z,15.60
2019-06-26T13:06:18.139Z,16.40
2019-06-26T13:08:44.613Z,16.70
2019-06-26T13:11:10.957Z,16.10
2019-06-26T13:13:37.183Z,17.70
2019-06-26T13:16:03.540Z,17.00
2019-06-26T13:18:29.872Z,18.00
2019-06-26T13:20:56.156Z,18.80
2019-06-26T13:23:22.467Z,20.00
2019-06-26T13:25:48.807Z,20.40
2019-06-26T13:28:15.293Z,20.40
2019-06-26T13:30:42.145Z,20.20
2019-06-26T13:33:08.386Z,20.40
2019-06-26T13:35:34.733Z,19.50
2019-06-26T13:38:03.006Z,19.20
2019-06-26T13:40:29.368Z,19.90
2019-06-26T13:42:55.621Z,19.60
2019-06-26T13:45:22.101Z,19.40
2019-06-26T13:47:48.361Z,19.30
2019-06-26T13:50:15.593Z,20.80
2019-06-26T13:52:41.834Z,20.80
2019-06-26T13:55:08.176Z,20.40
2019-06-26T13:57:34.758Z,18.90
2019-06-26T14:00:01.636Z,18.90
2019-06-26T14:02:27.865Z,19.90
2019-06-26T14:04:54.112Z,19.90
2019-06-26T14:07:20.354Z,20.10
2019-06-26T14:09:46.585Z,20.20
2019-06-26T14:12:12.832Z,20.10
2019-06-26T14:14:56.202Z,20.20
2019-06-26T14:17:07.329Z,20.30
2019-06-26T14:19:33.618Z,20.10
2019-06-26T14:21:59.976Z,20.20
2019-06-26T14:24:26.369Z,20.20
2019-06-26T14:26:52.722Z,20.20
2019-06-26T14:29:21.275Z,19.90
2019-06-26T14:31:47.469Z,19.60
2019-06-26T14:34:13.735Z,20.10
2019-06-26T14:36:39.970Z,19.90
2019-06-26T14:39:06.712Z,20.00
2019-06-26T14:41:33.167Z,20.20
2019-06-26T14:44:01.393Z,20.40
2019-06-26T14:46:27.701Z,21.20
2019-06-26T14:48:53.937Z,21.00
2019-06-26T14:51:20.196Z,20.90
2019-06-26T14:53:46.552Z,21.10
2019-06-26T14:56:12.790Z,21.10
2019-06-26T14:58:39.030Z,21.80
2019-06-26T15:01:05.401Z,19.70
2019-06-26T15:03:31.729Z,20.00
2019-06-26T15:06:12.281Z,20.60
2019-06-26T15:08:26.147Z,20.30
2019-06-26T15:10:52.385Z,19.50
2019-06-26T15:13:18.718Z,21.10
2019-06-26T15:15:45.218Z,20.30
2019-06-26T15:18:11.450Z,20.80
2019-06-26T15:20:38.113Z,21.70
2019-06-26T15:23:04.463Z,22.80
2019-06-26T15:25:30.804Z,21.00
2019-06-26T15:27:57.077Z,22.30
2019-06-26T15:30:23.717Z,22.00
2019-06-26T15:32:50.358Z,21.70
2019-06-26T15:35:16.877Z,22.10
2019-06-26T15:37:44.865Z,21.90
2019-06-26T15:40:13.865Z,20.60
2019-06-26T15:42:40.539Z,21.60
2019-06-26T15:45:07.543Z,21.40
2019-06-26T15:47:33.880Z,20.20
2019-06-26T15:50:00.221Z,19.50
2019-06-26T15:52:26.471Z,21.80
2019-06-26T15:54:52.725Z,20.40
2019-06-26T15:57:19.270Z,20.00
2019-06-26T15:59:45.614Z,21.20
2019-06-26T16:02:11.857Z,21.00
2019-06-26T16:04:38.280Z,21.10
2019-06-26T16:07:04.612Z,22.10
2019-06-26T16:09:30.869Z,22.10
2019-06-26T16:11:58.947Z,21.60
2019-06-26T16:14:25.449Z,22.00
2019-06-26T16:16:53.582Z,22.80
2019-06-26T16:19:21.747Z,23.90
2019-06-26T16:21:47.986Z,24.30
2019-06-26T16:24:14.219Z,24.80
2019-06-26T16:26:40.575Z,24.40
2019-06-26T16:29:06.800Z,24.70
2019-06-26T16:31:33.046Z,25.20
2019-06-26T16:33:59.273Z,26.10
2019-06-26T16:36:25.619Z,27.20
2019-06-26T16:38:51.960Z,27.40
2019-06-26T16:41:18.576Z,28.40
2019-06-26T16:43:45.128Z,28.20
2019-06-26T16:46:11.368Z,29.10
2019-06-26T16:48:37.596Z,28.70
2019-06-26T16:51:04.170Z,28.90
2019-06-26T16:53:30.754Z,29.20
2019-06-26T16:55:57.282Z,29.00
2019-06-26T16:58:23.516Z,28.70
2019-06-26T17:00:49.768Z,28.90
2019-06-26T17:03:16.106Z,29.00
2019-06-26T17:05:42.345Z,28.90
2019-06-26T17:08:09.146Z,28.90
2019-06-26T17:10:35.678Z,28.90
2019-06-26T17:13:01.982Z,29.00
2019-06-26T17:15:28.366Z,28.90
2019-06-26T17:17:54.602Z,28.70
2019-06-26T17:20:20.910Z,28.80
2019-06-26T17:22:47.192Z,28.70
2019-06-26T17:25:13.739Z,29.10
2019-06-26T17:27:40.404Z,29.40
2019-06-26T17:30:08.057Z,29.30
2019-06-26T17:32:34.415Z,29.80
2019-06-26T17:35:00.676Z,29.60
2019-06-26T17:37:26.919Z,30.10
2019-06-26T17:39:53.499Z,30.60
2019-06-26T17:42:19.825Z,30.80
2019-06-26T17:44:46.171Z,30.90
2019-06-26T17:47:12.406Z,31.20
2019-06-26T17:49:38.750Z,31.20
2019-06-26T17:52:05.085Z,31.70
2019-06-26T17:54:31.340Z,32.00
2019-06-26T17:56:57.552Z,32.50
2019-06-26T17:59:23.796Z,33.30
2019-06-26T18:01:50.055Z,34.20
2019-06-26T18:04:16.371Z,34.00
2019-06-26T18:06:42.601Z,35.20
2019-06-26T18:09:12.000Z,36.30
2019-06-26T18:11:36.998Z,35.60
2019-06-26T18:14:03.595Z,36.40
2019-06-26T18:16:29.887Z,37.20
2019-06-26T18:18:56.237Z,37.10
2019-06-26T18:21:22.476Z,37.00
2019-06-26T18:23:48.720Z,37.50
2019-06-26T18:26:14.956Z,37.30
2019-06-26T18:28:41.190Z,37.70
2019-06-26T18:31:07.429Z,37.50
2019-06-26T18:33:33.679Z,37.30
2019-06-26T18:36:00.253Z,38.00
2019-06-26T18:38:26.495Z,38.20
2019-06-26T18:40:53.012Z,38.30
2019-06-26T18:43:19.260Z,38.20
2019-06-26T18:45:45.489Z,38.90
2019-06-26T18:48:11.835Z,39.90
2019-06-26T18:50:38.078Z,39.60
2019-06-26T18:53:04.568Z,39.70
2019-06-26T18:55:31.089Z,39.50
2019-06-26T18:57:57.330Z,39.70
2019-06-26T19:00:23.680Z,41.40
2019-06-26T19:02:49.916Z,41.40
2019-06-26T19:05:16.452Z,42.10
2019-06-26T19:07:42.684Z,42.50
2019-06-26T19:10:09.326Z,43.10
2019-06-26T19:12:35.862Z,43.70
2019-06-26T19:15:04.378Z,44.70
2019-06-26T19:17:30.675Z,44.90
2019-06-26T19:19:57.001Z,44.80
2019-06-26T19:22:23.338Z,45.30
2019-06-26T19:24:49.591Z,45.30
2019-06-26T19:27:15.825Z,45.30
2019-06-26T19:29:42.077Z,45.10
2019-06-26T19:32:08.426Z,45.00
2019-06-26T19:34:34.673Z,45.20
2019-06-26T19:37:01.015Z,45.30
2019-06-26T19:39:27.238Z,44.40
2019-06-26T19:41:53.480Z,45.00
2019-06-26T19:44:19.718Z,44.70
2019-06-26T19:46:45.957Z,45.90
2019-06-26T19:49:12.177Z,45.20
2019-06-26T19:51:38.464Z,46.20
2019-06-26T19:54:05.093Z,46.80
2019-06-26T19:56:31.348Z,46.90
2019-06-26T19:58:57.603Z,48.10
2019-06-26T20:01:23.833Z,47.40
2019-06-26T20:03:50.115Z,47.50
2019-06-26T20:06:16.395Z,48.50
2019-06-26T20:08:52.173Z,49.60
2019-06-26T20:11:11.277Z,49.40
2019-06-26T20:13:37.986Z,50.00
2019-06-26T20:16:04.356Z,50.70
2019-06-26T20:18:30.576Z,50.70
2019-06-26T20:20:56.817Z,50.80
2019-06-26T20:23:23.386Z,50.50
2019-06-26T20:25:49.970Z,51.20
2019-06-26T20:28:16.364Z,51.50
2019-06-26T20:30:42.632Z,51.90
2019-06-26T20:33:08.886Z,52.50
2019-06-26T20:35:38.719Z,52.70
2019-06-26T20:38:05.207Z,52.50
2019-06-26T20:40:31.437Z,52.60
2019-06-26T20:42:57.747Z,53.50
2019-06-26T20:45:24.123Z,53.30
2019-06-26T20:47:50.413Z,53.10
2019-06-26T20:50:16.677Z,52.60
2019-06-26T20:52:42.927Z,52.10
2019-06-26T20:55:09.169Z,54.00
2019-06-26T20:57:35.509Z,54.10
2019-06-26T21:00:03.652Z,55.00
2019-06-26T21:02:29.995Z,54.80
2019-06-26T21:04:56.334Z,54.20
2019-06-26T21:07:22.730Z,54.60
2019-06-26T21:09:48.962Z,54.50
2019-06-26T21:12:15.323Z,52.10
2019-06-26T21:14:41.574Z,50.50
2019-06-26T21:17:07.914Z,50.20
2019-06-26T21:19:34.204Z,50.20
2019-06-26T21:22:00.545Z,50.10
2019-06-26T21:24:26.799Z,49.90
2019-06-26T21:26:53.051Z,50.60
2019-06-26T21:29:19.296Z,50.80
2019-06-26T21:31:45.628Z,51.70
2019-06-26T21:34:12.013Z,52.20
2019-06-26T21:36:38.562Z,51.80
2019-06-26T21:39:05.921Z,52.50
2019-06-26T21:41:32.442Z,51.70
2019-06-26T21:43:59.084Z,51.70
2019-06-26T21:46:25.320Z,52.00
2019-06-26T21:48:51.660Z,51.60
2019-06-26T21:51:17.889Z,51.40
2019-06-26T21:53:44.233Z,51.30
2019-06-26T21:56:10.803Z,51.60
2019-06-26T21:58:37.036Z,51.40
2019-06-26T22:01:03.819Z,50.40
2019-06-26T22:03:30.326Z,50.50
2019-06-26T22:05:56.675Z,50.50
2019-06-26T22:08:23.293Z,51.10
2019-06-26T22:10:50.061Z,52.40
2019-06-26T22:13:16.305Z,52.30
2019-06-26T22:15:42.841Z,52.40
2019-06-26T22:18:09.411Z,52.50
2019-06-26T22:20:35.703Z,52.30
2019-06-26T22:23:02.233Z,51.50
2019-06-26T22:25:28.531Z,51.20
2019-06-26T22:27:54.959Z,50.40
2019-06-26T22:30:21.574Z,51.90
2019-06-26T22:32:48.274Z,52.40
2019-06-26T22:35:14.912Z,52.70
2019-06-26T22:37:41.143Z,52.90
2019-06-26T22:40:07.689Z,53.40
2019-06-26T22:42:33.956Z,53.80
2019-06-26T22:45:00.286Z,52.90
2019-06-26T22:47:26.519Z,52.80
2019-06-26T22:49:52.878Z,52.90
2019-06-26T22:52:19.214Z,52.40
2019-06-26T22:54:45.565Z,52.20
2019-06-26T22:57:11.812Z,52.60
2019-06-26T22:59:38.091Z,53.70
2019-06-26T23:02:04.329Z,53.80
2019-06-26T23:04:30.766Z,53.80
2019-06-26T23:06:57.021Z,53.00
2019-06-26T23:09:23.261Z,52.20
2019-06-26T23:11:49.512Z,53.10
2019-06-26T23:14:15.855Z,53.80
2019-06-26T23:16:42.210Z,53.90
2019-06-26T23:19:08.537Z,54.00
2019-06-26T23:21:38.340Z,55.10
2019-06-26T23:24:04.578Z,56.30
2019-06-26T23:26:33.882Z,55.50
2019-06-26T23:29:00.136Z,56.10
2019-06-26T23:31:26.394Z,56.00
2019-06-26T23:33:52.645Z,56.60
2019-06-26T23:36:19.020Z,57.20
2019-06-26T23:38:45.394Z,57.60
2019-06-26T23:41:11.739Z,57.60
2019-06-26T23:43:37.986Z,58.60
2019-06-26T23:46:04.242Z,57.70
2019-06-26T23:48:30.603Z,59.50
2019-06-26T23:50:56.847Z,59.80
2019-06-26T23:53:23.202Z,59.80
2019-06-26T23:55:49.554Z,59.70
2019-06-26T23:58:15.814Z,59.70
